Time;durP1;ratioP1;P1;durP2;ratioP2;P2;SDS_P1;SDS_P2;PMS_P1;PMS_P2;Temp;Humidity;BMP_temperature;BMP_pressure;BME280_temperature;BME280_humidity;BME280_pressure;Samples;Min_cycle;Max_cycle;Signal;HPM_P1;HPM_P2
2021/10/25 00:05:16;;;;;;;6.78;3.45;;;;;;;;;;21015535;28;20048;-61
2021/10/25 00:15:17;;;;;;;6.18;2.75;;;;;;;;;;21029799;28;20041;-67
2021/10/25 00:25:20;;;;;;;7.53;3.50;;;;;;;;;;21024862;28;20416;-63
2021/10/25 00:35:21;;;;;;;6.43;3.40;;;;;;;;;;21017785;28;20506;-64
2021/10/25 00:45:23;;;;;;;8.35;3.15;;;;;;;;;;21002967;28;20049;-62
2021/10/25 00:55:25;;;;;;;6.32;2.80;;;;;;;;;;21002164;28;20040;-60
2021/10/25 01:05:29;;;;;;;5.78;3.20;;;;;;;;;;20997449;28;20082;-64
2021/10/25 01:15:32;;;;;;;6.38;3.25;;;;;;;;;;20997805;28;20052;-63
2021/10/25 01:25:35;;;;;;;5.03;2.92;;;;;;;;;;20996665;28;20435;-67
2021/10/25 01:35:38;;;;;;;4.05;2.97;;;;;;;;;;20996757;28;20186;-64
2021/10/25 01:45:41;;;;;;;4.85;3.15;;;;;;;;;;20995660;28;20052;-62
2021/10/25 01:55:55;;;;;;;4.45;3.13;;;;;;;;;;20995495;28;20052;-62
2021/10/25 02:05:57;;;;;;;7.10;3.28;;;;;;;;;;20994194;28;20049;-63
2021/10/25 02:15:59;;;;;;;4.85;3.10;;;;;;;;;;20996765;28;20056;-64
2021/10/25 02:26:12;;;;;;;5.78;3.13;;;;;;;;;;20994383;28;20052;-63
2021/10/25 02:36:15;;;;;;;7.72;2.90;;;;;;;;;;21010007;28;20048;-59
2021/10/25 02:46:19;;;;;;;5.38;2.95;;;;;;;;;;21008968;28;20052;-63
2021/10/25 02:56:22;;;;;;;5.85;2.80;;;;;;;;;;21008781;28;20045;-64
2021/10/25 03:06:44;;;;;;;4.22;2.35;;;;;;;;;;21008538;28;20051;-63
2021/10/25 03:17:05;;;;;;;5.82;3.00;;;;;;;;;;21007093;28;20111;-60
2021/10/25 03:27:27;;;;;;;4.93;2.85;;;;;;;;;;21006042;28;20049;-62
2021/10/25 03:37:39;;;;;;;4.60;3.08;;;;;;;;;;21005287;28;20127;-62
2021/10/25 03:48:08;;;;;;;6.50;3.80;;;;;;;;;;21004512;28;20432;-64
2021/10/25 04:30:05;;;;;;;6.78;3.05;;;;;;;;;;20663710;28;20056;-57
2021/10/25 04:40:08;;;;;;;6.00;2.85;;;;;;;;;;20722601;28;20049;-63
2021/10/25 04:50:23;;;;;;;3.88;2.40;;;;;;;;;;20986725;28;20106;-64
2021/10/25 05:00:28;;;;;;;4.57;2.73;;;;;;;;;;20998468;28;20048;-62
2021/10/25 05:10:31;;;;;;;7.20;3.03;;;;;;;;;;20997386;28;20048;-60
2021/10/25 05:20:35;;;;;;;6.65;3.53;;;;;;;;;;20997015;28;20467;-64
2021/10/25 05:30:37;;;;;;;8.23;2.92;;;;;;;;;;20996674;28;20059;-60
2021/10/25 05:40:40;;;;;;;5.68;3.70;;;;;;;;;;20997323;28;20463;-64
2021/10/25 05:50:43;;;;;;;6.47;3.00;;;;;;;;;;20994884;28;20500;-62
2021/10/25 06:00:54;;;;;;;5.22;3.33;;;;;;;;;;20994458;28;20057;-64
2021/10/25 06:10:56;;;;;;;5.65;3.55;;;;;;;;;;20995012;28;20558;-59
2021/10/25 06:20:58;;;;;;;5.82;3.08;;;;;;;;;;20995055;28;20409;-63
2021/10/25 06:31:03;;;;;;;5.43;3.00;;;;;;;;;;20993857;28;20389;-64
2021/10/25 06:41:07;;;;;;;6.32;2.97;;;;;;;;;;20993264;28;20059;-64
2021/10/25 06:51:10;;;;;;;6.60;3.28;;;;;;;;;;20992710;28;20057;-65
2021/10/25 07:01:13;;;;;;;7.55;4.10;;;;;;;;;;20992537;28;20060;-66
2021/10/25 07:11:16;;;;;;;9.10;3.40;;;;;;;;;;21006670;28;20048;-64
2021/10/25 08:12:49;;;;;;;9.23;3.97;;;;;;;;;;21002329;28;20400;-63
2021/10/25 08:22:51;;;;;;;8.43;3.80;;;;;;;;;;21000684;28;20088;-63
2021/10/25 08:43:26;;;;;;;11.68;5.00;;;;;;;;;;20743236;28;20092;-59
2021/10/25 08:53:28;;;;;;;8.50;4.88;;;;;;;;;;20741631;28;20129;-59
2021/10/25 09:03:29;;;;;;;8.65;4.63;;;;;;;;;;20822596;28;20095;-63
2021/10/25 09:13:31;;;;;;;8.55;4.30;;;;;;;;;;20846519;28;20087;-59
2021/10/25 09:23:36;;;;;;;7.28;3.60;;;;;;;;;;20913677;28;20045;-62
2021/10/25 09:33:41;;;;;;;12.95;4.72;;;;;;;;;;20912954;28;20041;-63
2021/10/25 09:54:07;;;;;;;17.85;6.72;;;;;;;;;;20918715;28;20051;-63
2021/10/25 10:04:10;;;;;;;13.80;5.33;;;;;;;;;;20993704;28;20049;-55
2021/10/25 10:14:13;;;;;;;19.63;6.10;;;;;;;;;;20993797;28;20059;-52
2021/10/25 10:24:17;;;;;;;12.38;6.43;;;;;;;;;;20975743;28;20056;-57
2021/10/25 10:34:20;;;;;;;9.68;4.28;;;;;;;;;;20993967;28;20049;-54
2021/10/25 10:44:26;;;;;;;14.73;4.30;;;;;;;;;;21007994;28;20162;-52
2021/10/25 10:54:38;;;;;;;8.88;3.22;;;;;;;;;;21007544;28;20504;-59
2021/10/25 11:04:40;;;;;;;9.65;3.40;;;;;;;;;;21006646;28;20489;-53
2021/10/25 11:14:46;;;;;;;8.35;3.17;;;;;;;;;;21006427;28;20507;-56
2021/10/25 11:24:56;;;;;;;8.38;3.13;;;;;;;;;;21005485;28;20151;-59
2021/10/25 11:34:59;;;;;;;7.75;3.92;;;;;;;;;;21004019;28;20041;-57
2021/10/25 11:45:24;;;;;;;7.28;3.42;;;;;;;;;;21003351;28;20096;-64
2021/10/25 11:55:30;;;;;;;12.43;4.27;;;;;;;;;;21002510;28;20052;-52
2021/10/25 12:05:33;;;;;;;10.00;4.68;;;;;;;;;;21002998;28;20048;-55
2021/10/25 12:15:47;;;;;;;10.43;5.20;;;;;;;;;;21001923;28;20386;-55
2021/10/25 12:25:54;;;;;;;8.40;3.40;;;;;;;;;;21001298;28;20052;-55
2021/10/25 12:35:59;;;;;;;7.40;3.42;;;;;;;;;;20999181;28;20496;-55
2021/10/25 12:46:04;;;;;;;12.50;3.95;;;;;;;;;;20998295;28;20142;-56
2021/10/25 12:56:08;;;;;;;8.00;4.00;;;;;;;;;;20997300;28;20059;-56
2021/10/25 13:06:10;;;;;;;8.30;3.70;;;;;;;;;;20996222;28;20091;-55
2021/10/25 13:16:20;;;;;;;12.52;10.15;;;;;;;;;;20997389;28;20082;-54
2021/10/25 13:26:26;;;;;;;8.13;4.25;;;;;;;;;;20995589;28;20473;-55
2021/10/25 13:36:28;;;;;;;8.18;3.90;;;;;;;;;;20995515;28;20058;-55
2021/10/25 13:46:31;;;;;;;8.23;3.97;;;;;;;;;;20994756;28;20122;-54
2021/10/25 13:56:37;;;;;;;8.18;4.88;;;;;;;;;;20994318;28;20060;-54
2021/10/25 14:06:40;;;;;;;9.63;3.05;;;;;;;;;;20993986;28;20052;-55
2021/10/25 14:16:52;;;;;;;4.88;2.45;;;;;;;;;;21006546;28;20443;-58
2021/10/25 14:26:58;;;;;;;9.20;2.55;;;;;;;;;;21010031;28;20513;-55
2021/10/25 14:37:05;;;;;;;5.25;2.20;;;;;;;;;;21008814;28;20496;-51
2021/10/25 14:57:26;;;;;;;5.15;2.22;;;;;;;;;;21006837;28;20059;-58
2021/10/25 15:07:29;;;;;;;8.17;2.67;;;;;;;;;;21007613;28;20048;-58
2021/10/25 15:17:30;;;;;;;5.35;2.17;;;;;;;;;;21005460;28;20052;-56
2021/10/25 15:27:31;;;;;;;7.40;2.97;;;;;;;;;;21004632;28;20111;-60
2021/10/25 15:37:33;;;;;;;5.30;2.58;;;;;;;;;;21004682;28;20052;-61
2021/10/25 15:47:35;;;;;;;8.85;3.72;;;;;;;;;;21003588;28;20141;-55
2021/10/25 15:57:36;;;;;;;10.88;3.15;;;;;;;;;;21002501;28;20521;-53
2021/10/25 16:07:38;;;;;;;5.65;2.40;;;;;;;;;;21001214;28;20174;-55
2021/10/25 16:17:40;;;;;;;11.00;3.72;;;;;;;;;;20992079;28;20098;-52
2021/10/25 16:27:42;;;;;;;8.65;3.30;;;;;;;;;;20999226;28;20095;-55
2021/10/25 16:37:44;;;;;;;9.20;3.17;;;;;;;;;;20998738;28;20049;-52
2021/10/25 16:47:47;;;;;;;6.53;3.78;;;;;;;;;;20998294;28;20045;-56
2021/10/25 17:18:31;;;;;;;13.90;5.47;;;;;;;;;;20998052;28;20071;-63
2021/10/25 17:28:34;;;;;;;11.73;5.70;;;;;;;;;;21005981;28;20084;-65
2021/10/25 17:38:37;;;;;;;11.52;6.28;;;;;;;;;;21006462;28;20041;-67
2021/10/25 17:48:39;;;;;;;14.55;6.80;;;;;;;;;;20995906;28;20059;-57
2021/10/25 17:58:41;;;;;;;16.17;7.53;;;;;;;;;;20996256;28;20060;-64
2021/10/25 18:08:44;;;;;;;12.95;6.47;;;;;;;;;;20995291;28;20508;-59
2021/10/25 18:18:46;;;;;;;19.15;11.48;;;;;;;;;;20994402;28;20102;-67
2021/10/25 18:28:49;;;;;;;20.50;9.30;;;;;;;;;;20993389;28;20056;-66
2021/10/25 18:38:51;;;;;;;29.17;10.52;;;;;;;;;;20992961;28;20045;-67
2021/10/25 18:48:54;;;;;;;30.20;15.25;;;;;;;;;;20992828;28;20270;-68
2021/10/25 18:58:57;;;;;;;23.30;10.27;;;;;;;;;;20995287;28;20048;-60
2021/10/25 19:08:59;;;;;;;29.50;12.57;;;;;;;;;;21007883;28;20052;-66
2021/10/25 19:19:04;;;;;;;25.58;13.02;;;;;;;;;;21005964;28;20045;-67
2021/10/25 19:29:07;;;;;;;23.23;12.20;;;;;;;;;;21005203;28;20056;-63
2021/10/25 19:39:09;;;;;;;26.83;11.27;;;;;;;;;;21006002;28;20123;-67
2021/10/25 19:49:15;;;;;;;26.23;12.43;;;;;;;;;;21004421;28;20492;-66
2021/10/25 19:59:17;;;;;;;23.63;9.38;;;;;;;;;;21004029;28;20476;-60
2021/10/25 20:09:19;;;;;;;9.80;4.45;;;;;;;;;;21000056;28;20053;-55
2021/10/25 20:19:20;;;;;;;13.38;3.72;;;;;;;;;;20999605;28;20178;-58
2021/10/25 20:29:24;;;;;;;9.85;3.80;;;;;;;;;;20999144;28;20048;-64
2021/10/25 20:39:26;;;;;;;8.50;3.22;;;;;;;;;;20998778;28;20520;-68
2021/10/25 20:49:27;;;;;;;6.57;2.90;;;;;;;;;;20997414;28;20516;-65
2021/10/25 20:59:29;;;;;;;9.20;3.60;;;;;;;;;;20996544;28;20048;-68
2021/10/25 21:09:31;;;;;;;6.03;2.53;;;;;;;;;;20997492;28;20110;-61
2021/10/25 21:19:33;;;;;;;5.70;2.58;;;;;;;;;;20996359;28;20044;-67
2021/10/25 21:29:35;;;;;;;6.28;3.20;;;;;;;;;;20996677;28;20135;-58
2021/10/25 21:39:37;;;;;;;5.20;2.53;;;;;;;;;;20996203;28;20044;-68
2021/10/25 21:49:39;;;;;;;9.13;3.05;;;;;;;;;;20995043;28;20044;-67
2021/10/25 21:59:41;;;;;;;5.90;3.20;;;;;;;;;;20995019;28;20091;-63
2021/10/25 22:09:43;;;;;;;6.80;3.47;;;;;;;;;;20995860;28;20067;-66
2021/10/25 22:19:44;;;;;;;7.07;3.72;;;;;;;;;;20994626;28;20042;-67
2021/10/25 22:29:46;;;;;;;5.65;3.15;;;;;;;;;;20994178;28;20052;-65
2021/10/25 22:39:48;;;;;;;8.90;3.53;;;;;;;;;;21009040;28;20074;-65
2021/10/25 22:49:50;;;;;;;14.35;5.43;;;;;;;;;;21009101;28;20049;-66
2021/10/25 22:59:53;;;;;;;6.82;3.22;;;;;;;;;;21008064;28;20059;-64
2021/10/25 23:09:55;;;;;;;40.70;23.10;;;;;;;;;;21007707;28;20049;-69
2021/10/25 23:19:57;;;;;;;13.23;6.03;;;;;;;;;;21007560;28;20052;-66
2021/10/25 23:29:59;;;;;;;8.98;6.80;;;;;;;;;;21006882;28;20511;-67
2021/10/25 23:40:01;;;;;;;6.25;4.32;;;;;;;;;;21005922;28;20044;-66
2021/10/25 23:50:04;;;;;;;9.70;4.25;;;;;;;;;;21004219;28;20045;-55
